Terminal Aerodrome Forecast
Issued by NWS Denver/Boulder, CO

Home | Current Version | Previous Version | Text Only | Print | Product List | Glossary On
Versions: 1 2 3 4 5 6 7 8 9 10 11 12 13 14 15 16 17 18 19 20 21 22 23 24 25 26 27 28 29 30 31 32 33 34 35 36 37 38 39 40
000
FTUS45 KBOU 211124
TAFDEN
TAF
KDEN 211124Z 2112/2218 32008KT P6SM SCT100 SCT140
     FM211500 04010KT P6SM FEW080 SCT100 BKN140
     FM211700 09008KT P6SM FEW140 SCT200
     FM212000 13011KT P6SM FEW080 SCT120
     FM220100 16015KT P6SM FEW120
     FM220700 19013KT P6SM FEW220
     FM221500 23008KT P6SM SCT120 SCT220=

USA.gov is the U.S. government's official web portal to all federal, state and local government web resources and services.